Time;durP1;ratioP1;P1;durP2;ratioP2;P2;SDS_P1;SDS_P2;PMS_P1;PMS_P2;Temp;Humidity;BMP_temperature;BMP_pressure;BME280_temperature;BME280_humidity;BME280_pressure;Samples;Min_cycle;Max_cycle;Signal;HPM_P1;HPM_P2
2022/09/12 00:01:18;;;;;;;3.17;2.97;;;;;;;11.36;100.00;96573.50;5008273;28;105347;-61
2022/09/12 00:03:46;;;;;;;3.33;3.00;;;;;;;11.32;100.00;96578.53;5008439;28;105758;-61
2022/09/12 00:06:17;;;;;;;3.40;3.10;;;;;;;11.33;100.00;96580.13;5011216;28;102106;-61
2022/09/12 00:08:44;;;;;;;3.03;2.83;;;;;;;11.38;100.00;96574.03;5015900;28;102293;-61
2022/09/12 00:11:12;;;;;;;3.47;2.97;;;;;;;11.47;100.00;96577.88;5013053;28;101986;-61
2022/09/12 00:13:42;;;;;;;3.60;3.30;;;;;;;11.46;100.00;96573.63;5012707;28;102548;-61
2022/09/12 00:16:15;;;;;;;3.37;3.17;;;;;;;11.45;100.00;96570.13;5012153;28;103154;-61
2022/09/12 00:18:43;;;;;;;3.07;2.83;;;;;;;11.41;100.00;96573.56;5012840;28;101925;-61
2022/09/12 00:21:10;;;;;;;2.50;2.40;;;;;;;11.31;100.00;96576.94;5012882;28;102298;-61
2022/09/12 00:23:37;;;;;;;2.60;2.43;;;;;;;11.25;100.00;96569.13;5010596;28;105512;-60
2022/09/12 00:26:06;;;;;;;2.97;2.70;;;;;;;11.19;100.00;96567.47;5011441;28;101805;-61
2022/09/12 00:28:34;;;;;;;2.80;2.60;;;;;;;11.18;100.00;96571.19;5012868;28;102556;-61
2022/09/12 00:31:05;;;;;;;2.70;2.50;;;;;;;11.04;100.00;96564.63;5013956;28;105835;-60
2022/09/12 00:33:33;;;;;;;2.53;2.33;;;;;;;11.01;100.00;96562.47;5012827;28;102273;-61
2022/09/12 00:36:00;;;;;;;2.67;2.47;;;;;;;10.98;100.00;96553.13;5012025;28;102776;-61
2022/09/12 00:38:27;;;;;;;2.60;2.50;;;;;;;10.95;100.00;96550.94;5012533;28;101757;-61
2022/09/12 00:40:54;;;;;;;2.80;2.60;;;;;;;11.01;100.00;96549.16;5011188;28;105850;-61
2022/09/12 00:43:36;;;;;;;2.50;2.40;;;;;;;10.99;100.00;96548.59;5010222;28;105887;-61
2022/09/12 00:46:12;;;;;;;2.90;2.70;;;;;;;10.95;100.00;96548.28;5011098;28;101812;-61
2022/09/12 00:48:44;;;;;;;2.83;2.53;;;;;;;10.95;100.00;96550.94;5010824;28;105473;-61
2022/09/12 00:51:12;;;;;;;4.33;2.50;;;;;;;10.75;100.00;96547.25;5011827;28;101969;-61
2022/09/12 00:53:42;;;;;;;2.37;2.20;;;;;;;10.67;100.00;96542.34;5015332;28;101863;-61
2022/09/12 00:56:09;;;;;;;2.93;2.53;;;;;;;10.66;100.00;96541.56;5011749;28;104186;-61
2022/09/12 00:58:40;;;;;;;2.40;2.30;;;;;;;10.55;100.00;96550.47;5012248;28;101766;-61
2022/09/12 01:01:09;;;;;;;3.13;2.83;;;;;;;10.43;100.00;96536.47;5012594;28;101714;-60
2022/09/12 01:03:36;;;;;;;2.40;2.30;;;;;;;10.49;100.00;96526.69;5011412;28;102861;-61
2022/09/12 01:06:09;;;;;;;2.50;2.30;;;;;;;10.52;100.00;96526.22;5010730;28;101864;-61
2022/09/12 01:08:37;;;;;;;2.53;2.40;;;;;;;10.48;100.00;96519.78;5012000;28;102270;-61
2022/09/12 01:11:05;;;;;;;2.53;2.33;;;;;;;10.46;100.00;96524.53;5009978;28;103821;-61
2022/09/12 01:13:34;;;;;;;2.77;2.57;;;;;;;10.35;100.00;96520.94;5015426;28;101978;-61
2022/09/12 01:16:03;;;;;;;2.80;2.60;;;;;;;10.31;100.00;96519.00;5009349;28;105500;-61
2022/09/12 01:18:44;;;;;;;2.77;2.57;;;;;;;10.19;100.00;96516.44;5012222;28;102234;-61
2022/09/12 01:21:18;;;;;;;3.43;2.37;;;;;;;10.18;100.00;96520.16;5010562;28;105252;-61
2022/09/12 01:24:09;;;;;;;2.47;2.33;;;;;;;10.09;100.00;96516.31;5009644;28;105426;-61
2022/09/12 01:27:05;;;;;;;2.57;2.37;;;;;;;10.11;100.00;96506.25;5012079;28;101926;-61
2022/09/12 01:29:49;;;;;;;2.33;2.20;;;;;;;10.06;100.00;96514.16;5011784;28;102503;-60
2022/09/12 01:32:26;;;;;;;2.30;2.10;;;;;;;10.06;100.00;96503.53;5009815;28;105088;-61
2022/09/12 01:35:04;;;;;;;2.30;2.20;;;;;;;9.99;100.00;96500.22;5010334;28;101810;-61
2022/09/12 01:37:38;;;;;;;2.47;2.30;;;;;;;9.90;100.00;96504.31;5012897;28;106373;-61
2022/09/12 01:40:15;;;;;;;2.03;1.93;;;;;;;9.95;100.00;96495.59;5011912;28;102152;-61
2022/09/12 01:42:46;;;;;;;1.97;1.87;;;;;;;9.94;100.00;96501.97;5011837;28;102510;-61
2022/09/12 01:45:18;;;;;;;1.93;1.83;;;;;;;9.98;100.00;96500.44;5010873;28;102479;-61
2022/09/12 01:47:51;;;;;;;2.20;2.00;;;;;;;9.98;100.00;96497.78;5011285;28;102122;-61
2022/09/12 01:50:21;;;;;;;2.17;1.93;;;;;;;9.91;100.00;96491.81;5011522;28;102571;-60
2022/09/12 01:52:52;;;;;;;2.57;2.47;;;;;;;9.93;100.00;96487.09;5010792;28;103153;-61
2022/09/12 01:55:24;;;;;;;2.20;2.10;;;;;;;9.79;100.00;96480.50;5010073;28;101776;-61
2022/09/12 01:57:57;;;;;;;4.67;2.40;;;;;;;9.83;100.00;96484.28;5011463;28;102367;-61
2022/09/12 02:00:25;;;;;;;2.70;2.50;;;;;;;9.76;100.00;96488.97;5014435;28;102855;-61
2022/09/12 02:03:01;;;;;;;2.60;2.30;;;;;;;9.77;100.00;96482.59;5011339;28;102355;-61
2022/09/12 02:05:32;;;;;;;2.77;2.57;;;;;;;9.71;100.00;96480.91;5010683;28;102795;-61
2022/09/12 02:08:04;;;;;;;2.80;2.60;;;;;;;9.77;100.00;96477.28;5009873;28;102018;-61
2022/09/12 02:10:34;;;;;;;2.80;2.60;;;;;;;9.76;100.00;96478.34;5009838;28;105044;-61
2022/09/12 02:13:07;;;;;;;3.10;2.80;;;;;;;9.75;100.00;96477.50;5010238;28;104299;-61
2022/09/12 02:15:40;;;;;;;2.50;2.30;;;;;;;9.72;100.00;96485.16;5011247;28;101700;-61
2022/09/12 02:18:13;;;;;;;2.80;2.60;;;;;;;9.73;100.00;96476.97;5011050;28;102370;-60
2022/09/12 02:20:41;;;;;;;2.53;2.33;;;;;;;9.74;100.00;96473.25;5010399;28;102613;-61
2022/09/12 02:23:15;;;;;;;3.13;2.80;;;;;;;9.66;100.00;96473.66;5014546;28;101665;-61
2022/09/12 02:25:46;;;;;;;3.13;2.90;;;;;;;9.72;100.00;96469.22;5009171;28;105722;-61
2022/09/12 02:28:17;;;;;;;3.00;2.77;;;;;;;9.68;100.00;96470.75;5009805;28;101766;-61
2022/09/12 02:30:52;;;;;;;4.17;3.20;;;;;;;9.66;100.00;96467.56;5009259;28;103692;-61
2022/09/12 02:33:27;;;;;;;3.30;3.00;;;;;;;9.68;100.00;96473.41;5008972;28;105772;-61
2022/09/12 02:36:01;;;;;;;2.83;2.63;;;;;;;9.69;100.00;96465.22;5009346;28;101860;-61
2022/09/12 02:38:34;;;;;;;3.73;3.40;;;;;;;9.70;100.00;96466.03;5011083;28;102697;-61
2022/09/12 02:41:01;;;;;;;3.70;3.40;;;;;;;9.68;100.00;96463.59;5008566;28;106497;-60
2022/09/12 02:43:28;;;;;;;3.53;3.23;;;;;;;9.70;100.00;96455.41;5010466;28;101798;-61
2022/09/12 02:45:55;;;;;;;3.07;2.87;;;;;;;9.61;100.00;96451.53;5012038;28;105030;-61
2022/09/12 02:48:27;;;;;;;3.40;3.13;;;;;;;9.60;100.00;96455.25;5009575;28;101829;-61
2022/09/12 02:50:55;;;;;;;3.57;3.30;;;;;;;9.59;100.00;96453.66;5009205;28;105507;-61
2022/09/12 02:53:22;;;;;;;4.03;3.37;;;;;;;9.59;100.00;96457.09;5009658;28;102831;-61
2022/09/12 02:55:50;;;;;;;4.07;3.63;;;;;;;9.59;100.00;96446.47;5010635;28;102072;-60
2022/09/12 02:58:21;;;;;;;3.97;3.67;;;;;;;9.60;100.00;96456.03;5010422;28;102548;-61
2022/09/12 03:00:54;;;;;;;3.60;3.30;;;;;;;9.50;100.00;96455.91;5010214;28;102539;-61
2022/09/12 03:03:36;;;;;;;3.90;3.60;;;;;;;9.47;100.00;96451.06;5008860;28;101835;-61
2022/09/12 03:06:12;;;;;;;3.90;3.60;;;;;;;9.42;100.00;96450.97;5010522;28;102803;-61
2022/09/12 03:09:02;;;;;;;3.13;2.93;;;;;;;9.47;100.00;96450.25;5012915;28;102673;-61
2022/09/12 03:11:46;;;;;;;2.90;2.70;;;;;;;9.42;100.00;96452.81;5008176;28;103036;-61
2022/09/12 03:14:25;;;;;;;4.00;3.70;;;;;;;9.32;100.00;96448.16;5008369;28;103786;-61
2022/09/12 03:17:02;;;;;;;3.30;3.10;;;;;;;9.36;100.00;96459.09;5010429;28;101666;-61
2022/09/12 03:19:43;;;;;;;2.90;2.70;;;;;;;9.27;100.00;96449.94;5010291;28;101893;-61
2022/09/12 03:22:16;;;;;;;4.23;3.20;;;;;;;9.35;100.00;96454.84;5009528;28;102738;-61
2022/09/12 03:24:49;;;;;;;5.53;3.80;;;;;;;9.33;100.00;96457.72;5010247;28;101682;-61
2022/09/12 03:27:21;;;;;;;3.50;3.20;;;;;;;9.28;100.00;96454.97;5010278;28;102882;-61
2022/09/12 03:29:50;;;;;;;3.00;2.80;;;;;;;9.23;100.00;96456.75;5011466;28;105906;-61
2022/09/12 03:32:17;;;;;;;3.00;2.80;;;;;;;9.20;100.00;96451.91;5009701;28;102263;-61
2022/09/12 03:34:46;;;;;;;2.80;2.60;;;;;;;9.22;100.00;96449.84;5007807;28;104228;-61
2022/09/12 03:37:13;;;;;;;3.00;2.80;;;;;;;9.30;100.00;96452.09;5009862;28;101794;-61
2022/09/12 03:39:40;;;;;;;3.30;3.03;;;;;;;9.25;100.00;96455.47;5012462;28;102915;-61
2022/09/12 03:42:07;;;;;;;3.07;2.87;;;;;;;9.24;100.00;96455.72;5012934;28;102584;-61
2022/09/12 03:44:34;;;;;;;3.20;3.00;;;;;;;9.13;100.00;96456.59;5013484;28;102043;-60
2022/09/12 03:47:01;;;;;;;2.83;2.70;;;;;;;9.14;100.00;96461.66;5013207;28;102914;-61
2022/09/12 03:49:28;;;;;;;3.47;3.17;;;;;;;9.13;100.00;96459.25;5012311;28;102542;-61
2022/09/12 03:51:56;;;;;;;3.37;3.07;;;;;;;9.03;100.00;96453.75;5016724;28;102092;-61
2022/09/12 03:54:23;;;;;;;3.20;3.00;;;;;;;9.00;100.00;96454.25;5012677;28;102629;-61
2022/09/12 03:56:50;;;;;;;3.40;3.10;;;;;;;9.04;100.00;96453.53;5013159;28;101684;-61
2022/09/12 03:59:17;;;;;;;3.33;3.13;;;;;;;9.01;100.00;96456.66;5011582;28;104851;-61
2022/09/12 04:01:44;;;;;;;3.40;3.10;;;;;;;8.95;100.00;96457.59;5012283;28;101975;-61
2022/09/12 04:04:11;;;;;;;2.93;2.73;;;;;;;8.98;100.00;96457.13;5013341;28;101798;-61
2022/09/12 04:06:37;;;;;;;3.63;3.40;;;;;;;8.97;100.00;96454.72;5011626;28;104152;-61
2022/09/12 04:09:06;;;;;;;3.87;3.57;;;;;;;8.98;100.00;96451.81;5012050;28;104377;-61
2022/09/12 04:11:34;;;;;;;3.40;3.20;;;;;;;8.96;100.00;96453.91;5012697;28;102145;-61
2022/09/12 04:14:01;;;;;;;5.07;3.37;;;;;;;8.95;100.00;96454.16;5015736;28;102455;-61
2022/09/12 04:16:28;;;;;;;6.67;4.40;;;;;;;8.93;100.00;96453.56;5012670;28;101724;-61
2022/09/12 04:18:56;;;;;;;3.70;3.40;;;;;;;8.96;100.00;96463.72;5011657;28;106155;-61
2022/09/12 04:21:23;;;;;;;3.60;3.30;;;;;;;8.95;100.00;96459.47;5011147;28;103069;-61
2022/09/12 04:23:50;;;;;;;3.47;3.17;;;;;;;8.88;100.00;96456.16;5012730;28;101917;-61
2022/09/12 04:26:20;;;;;;;3.00;2.80;;;;;;;8.93;100.00;96453.56;5012803;28;102586;-61
2022/09/12 04:28:47;;;;;;;3.10;2.90;;;;;;;8.78;100.00;96451.44;5012191;28;102545;-61
2022/09/12 04:31:19;;;;;;;3.20;3.00;;;;;;;8.79;100.00;96458.34;5012440;28;101805;-61
2022/09/12 04:33:46;;;;;;;3.00;2.80;;;;;;;8.80;100.00;96460.00;5012987;28;102352;-61
2022/09/12 04:36:15;;;;;;;3.33;3.03;;;;;;;8.80;100.00;96448.56;5015408;28;103142;-61
2022/09/12 04:38:43;;;;;;;3.50;3.30;;;;;;;8.81;100.00;96452.81;5012313;28;102664;-61
2022/09/12 04:41:12;;;;;;;5.00;3.30;;;;;;;8.82;100.00;96452.59;5010689;28;105382;-61
2022/09/12 04:43:40;;;;;;;3.33;3.13;;;;;;;8.85;100.00;96457.44;5012567;28;101834;-61
2022/09/12 04:46:08;;;;;;;3.40;3.20;;;;;;;8.84;100.00;96455.81;5010881;28;105471;-61
2022/09/12 04:48:36;;;;;;;3.40;3.20;;;;;;;8.84;100.00;96452.38;5011515;28;103256;-61
2022/09/12 04:51:07;;;;;;;3.73;3.43;;;;;;;8.87;100.00;96459.81;5010948;28;102230;-61
2022/09/12 04:53:35;;;;;;;4.07;2.90;;;;;;;8.87;100.00;96452.69;5012478;28;102471;-61
2022/09/12 04:56:12;;;;;;;3.60;3.27;;;;;;;8.91;100.00;96453.00;5010039;28;105266;-61
2022/09/12 04:58:40;;;;;;;4.00;3.60;;;;;;;8.87;100.00;96454.53;5016148;28;101678;-61
2022/09/12 05:01:09;;;;;;;2.90;2.70;;;;;;;8.81;100.00;96453.63;5011633;28;102855;-61
2022/09/12 05:03:37;;;;;;;3.13;2.90;;;;;;;8.76;100.00;96450.06;5012520;28;102236;-61
2022/09/12 05:06:08;;;;;;;2.77;2.57;;;;;;;8.73;100.00;96456.66;5011108;28;105740;-60
2022/09/12 05:08:35;;;;;;;3.20;2.90;;;;;;;8.75;100.00;96449.28;5010434;28;104430;-61
2022/09/12 05:11:03;;;;;;;3.47;3.17;;;;;;;8.73;100.00;96456.66;5011010;28;101860;-61
2022/09/12 05:13:31;;;;;;;2.93;2.73;;;;;;;8.85;100.00;96460.09;5012189;28;102588;-60
2022/09/12 05:16:19;;;;;;;3.80;3.40;;;;;;;8.90;100.00;96464.66;5011648;28;101891;-61
2022/09/12 05:18:47;;;;;;;3.13;2.93;;;;;;;8.89;100.00;96463.06;5011151;28;102059;-60
2022/09/12 05:21:17;;;;;;;3.97;3.63;;;;;;;8.99;100.00;96461.38;5014831;28;102968;-60
2022/09/12 05:23:44;;;;;;;4.13;3.83;;;;;;;9.01;100.00;96467.28;5010422;28;101950;-60
2022/09/12 05:26:15;;;;;;;3.63;3.27;;;;;;;9.11;100.00;96470.09;5012058;28;102851;-60
2022/09/12 05:28:43;;;;;;;3.90;3.60;;;;;;;9.24;100.00;96471.63;5011516;28;102655;-60
2022/09/12 05:31:13;;;;;;;4.33;3.90;;;;;;;9.35;100.00;96468.09;5011979;28;101938;-60
2022/09/12 05:33:43;;;;;;;5.03;4.63;;;;;;;9.52;100.00;96480.34;5011695;28;102330;-60
2022/09/12 05:39:32;;;;;;;5.00;4.50;;;;;;;9.75;100.00;96484.69;5012094;28;101705;-60
2022/09/12 05:41:59;;;;;;;5.53;5.13;;;;;;;9.83;100.00;96486.94;5013194;28;105467;-60
2022/09/12 05:44:27;;;;;;;5.53;5.03;;;;;;;9.82;100.00;96495.94;5011435;28;101830;-60
2022/09/12 05:47:20;;;;;;;5.70;5.20;;;;;;;10.00;100.00;96485.06;5011473;28;102479;-60
2022/09/12 05:49:50;;;;;;;5.57;5.07;;;;;;;10.07;100.00;96491.03;5010669;28;101985;-60
2022/09/12 05:52:17;;;;;;;5.30;4.90;;;;;;;10.14;100.00;96489.03;5011545;28;101753;-60
2022/09/12 05:54:44;;;;;;;6.37;5.77;;;;;;;10.25;100.00;96498.75;5010254;28;106053;-61
2022/09/12 05:57:21;;;;;;;5.60;5.20;;;;;;;10.35;100.00;96496.22;5014932;28;104732;-60
2022/09/12 05:59:49;;;;;;;5.63;5.13;;;;;;;10.48;100.00;96495.84;5031876;27;101794;-60
2022/09/12 06:02:16;;;;;;;6.20;5.70;;;;;;;10.52;100.00;96495.09;5031463;27;102913;-60
2022/09/12 06:04:44;;;;;;;6.43;5.90;;;;;;;10.65;100.00;96496.59;5033702;27;102459;-60
2022/09/12 06:07:28;;;;;;;6.17;5.67;;;;;;;10.75;100.00;96494.06;5016772;28;102268;-60
2022/09/12 06:09:55;;;;;;;6.00;5.50;;;;;;;10.81;100.00;96495.72;5029603;28;105833;-60
2022/09/12 06:12:22;;;;;;;6.13;5.63;;;;;;;10.90;100.00;96492.34;5029164;27;101863;-60
2022/09/12 06:14:49;;;;;;;6.20;5.77;;;;;;;11.09;100.00;96498.16;5010098;28;105711;-60
2022/09/12 06:18:04;;;;;;;6.17;5.67;;;;;;;11.26;100.00;96490.88;5009484;28;105326;-60
2022/09/12 06:20:47;;;;;;;6.17;5.67;;;;;;;11.40;100.00;96486.75;5012629;28;101933;-60
2022/09/12 06:23:15;;;;;;;6.67;6.17;;;;;;;11.53;100.00;96475.66;5011355;28;102863;-61
2022/09/12 06:26:01;;;;;;;6.67;6.17;;;;;;;11.66;100.00;96484.06;5010430;28;103106;-60
2022/09/12 06:28:28;;;;;;;5.97;5.47;;;;;;;11.81;100.00;96475.38;5014775;28;101700;-60
2022/09/12 06:31:03;;;;;;;6.37;5.87;;;;;;;11.92;100.00;96474.41;5010483;28;102672;-60
2022/09/12 06:33:30;;;;;;;6.20;5.70;;;;;;;12.08;100.00;96468.09;5009639;28;101957;-60
2022/09/12 06:36:03;;;;;;;6.00;5.50;;;;;;;12.24;100.00;96470.63;5009587;28;105611;-60
2022/09/12 06:38:32;;;;;;;5.27;4.87;;;;;;;12.43;100.00;96470.97;5010333;28;102786;-60
2022/09/12 06:41:00;;;;;;;5.60;5.20;;;;;;;12.61;100.00;96471.34;5010556;28;101932;-60
2022/09/12 06:43:29;;;;;;;6.13;5.70;;;;;;;12.72;100.00;96472.16;5010905;28;102357;-60
2022/09/12 06:46:12;;;;;;;6.37;5.87;;;;;;;12.88;100.00;96477.31;5010006;28;102892;-60
2022/09/12 06:48:39;;;;;;;6.40;5.90;;;;;;;12.98;100.00;96472.00;5009678;28;101717;-60
2022/09/12 06:51:10;;;;;;;6.17;5.63;;;;;;;13.12;100.00;96472.31;5015763;28;102603;-60
2022/09/12 06:53:38;;;;;;;6.43;5.93;;;;;;;13.35;100.00;96466.50;5028722;28;101919;-60
2022/09/12 06:56:07;;;;;;;6.40;5.90;;;;;;;13.45;100.00;96475.31;5029781;28;102953;-60
2022/09/12 06:58:36;;;;;;;6.40;5.90;;;;;;;13.55;100.00;96467.31;5029625;28;102845;-60
2022/09/12 07:01:04;;;;;;;6.10;5.50;;;;;;;13.57;100.00;96465.16;5028753;28;101907;-60
2022/09/12 07:03:32;;;;;;;6.20;5.70;;;;;;;13.73;100.00;96471.31;5030057;28;102430;-60
2022/09/12 07:06:03;;;;;;;5.40;5.00;;;;;;;13.84;100.00;96470.25;5028913;28;103079;-60
2022/09/12 07:08:31;;;;;;;5.20;4.80;;;;;;;13.89;100.00;96468.34;5028401;28;102105;-60
2022/09/12 07:11:01;;;;;;;5.70;5.07;;;;;;;14.01;100.00;96466.19;5029618;28;102357;-60
2022/09/12 07:13:28;;;;;;;4.70;4.40;;;;;;;14.26;100.00;96476.09;5031898;27;102804;-61
2022/09/12 07:15:55;;;;;;;4.53;4.23;;;;;;;14.20;100.00;96464.59;5029952;28;102239;-61
2022/09/12 07:18:22;;;;;;;3.67;3.47;;;;;;;14.28;100.00;96468.59;5029450;28;103223;-61
2022/09/12 07:20:50;;;;;;;4.13;3.50;;;;;;;14.54;100.00;96468.25;5028268;28;102007;-61
2022/09/12 07:23:17;;;;;;;3.90;3.10;;;;;;;14.75;100.00;96467.09;5028392;28;105284;-60
2022/09/12 07:25:44;;;;;;;3.10;2.80;;;;;;;14.96;100.00;96467.81;5027613;28;105548;-61
2022/09/12 07:28:12;;;;;;;3.17;2.87;;;;;;;14.87;100.00;96464.13;5029124;28;101940;-60
2022/09/12 07:30:40;;;;;;;2.73;2.50;;;;;;;15.08;100.00;96462.91;5029375;27;103857;-61
2022/09/12 07:33:07;;;;;;;2.70;2.50;;;;;;;15.24;100.00;96467.09;5024890;27;103196;-61
2022/09/12 07:35:34;;;;;;;2.63;2.43;;;;;;;15.39;100.00;96464.38;5011105;28;102001;-60
2022/09/12 07:38:02;;;;;;;2.20;2.10;;;;;;;15.35;100.00;96466.00;5009370;28;102875;-61
2022/09/12 07:40:29;;;;;;;2.20;2.10;;;;;;;15.56;100.00;96460.22;5007683;28;101948;-60
2022/09/12 07:42:56;;;;;;;2.70;2.50;;;;;;;15.72;100.00;96456.34;5013583;28;106068;-61
2022/09/12 07:45:25;;;;;;;3.00;2.50;;;;;;;15.89;100.00;96463.97;5012446;28;105051;-61
2022/09/12 07:47:54;;;;;;;2.90;2.70;;;;;;;16.09;100.00;96461.13;5025900;28;102117;-62
2022/09/12 07:50:21;;;;;;;2.50;2.40;;;;;;;15.96;100.00;96453.75;5024139;28;105180;-61
2022/09/12 07:52:49;;;;;;;2.50;2.30;;;;;;;16.05;100.00;96462.75;5021860;28;105976;-62
2022/09/12 07:55:18;;;;;;;2.53;2.30;;;;;;;16.14;100.00;96461.06;5031244;28;102038;-61
2022/09/12 07:57:45;;;;;;;2.63;2.43;;;;;;;16.27;100.00;96457.72;5006774;28;105581;-61
2022/09/12 08:00:14;;;;;;;3.07;2.43;;;;;;;16.31;100.00;96462.25;5019348;28;102306;-61
2022/09/12 08:02:45;;;;;;;2.33;2.23;;;;;;;16.50;100.00;96462.31;5016281;28;105318;-61
2022/09/12 08:05:12;;;;;;;2.50;2.00;;;;;;;16.58;100.00;96464.41;5007067;28;105610;-61
2022/09/12 08:07:39;;;;;;;2.07;1.97;;;;;;;16.73;100.00;96461.53;5025545;28;103871;-61
2022/09/12 08:10:07;;;;;;;2.00;1.90;;;;;;;16.85;100.00;96460.03;5015353;28;104833;-61
2022/09/12 08:12:35;;;;;;;2.27;2.13;;;;;;;16.88;100.00;96458.66;5007277;28;106664;-60
2022/09/12 08:15:02;;;;;;;2.10;1.90;;;;;;;17.11;100.00;96457.81;5008457;28;101918;-60
2022/09/12 08:17:57;;;;;;;2.07;1.70;;;;;;;17.28;100.00;96461.59;5011466;28;104850;-60
2022/09/12 08:20:24;;;;;;;1.70;1.70;;;;;;;17.41;100.00;96452.03;5008067;28;101978;-60
2022/09/12 08:22:51;;;;;;;1.70;1.60;;;;;;;17.49;100.00;96454.88;5008077;28;104816;-60
2022/09/12 08:25:18;;;;;;;1.70;1.60;;;;;;;17.64;100.00;96461.91;5007766;28;103881;-60
2022/09/12 08:27:45;;;;;;;3.83;1.83;;;;;;;17.88;100.00;96451.84;5011791;28;101859;-60
2022/09/12 08:30:13;;;;;;;1.63;1.60;;;;;;;17.93;100.00;96459.81;5012948;28;102598;-61
2022/09/12 08:32:40;;;;;;;1.93;1.77;;;;;;;18.01;100.00;96461.84;5010897;28;105206;-61
2022/09/12 08:35:09;;;;;;;2.00;1.80;;;;;;;18.11;100.00;96458.97;5011489;28;101948;-61
2022/09/12 08:37:37;;;;;;;1.90;1.80;;;;;;;18.19;100.00;96459.09;5011212;28;105053;-61
2022/09/12 08:40:07;;;;;;;2.10;2.00;;;;;;;18.09;100.00;96466.56;5014231;28;106678;-61
2022/09/12 08:42:51;;;;;;;1.70;1.60;;;;;;;18.38;100.00;96462.56;5011409;28;105501;-61
2022/09/12 08:45:22;;;;;;;1.90;1.80;;;;;;;18.35;100.00;96459.63;5024649;28;105451;-61
2022/09/12 08:47:51;;;;;;;2.00;1.90;;;;;;;18.38;100.00;96453.66;5030442;28;102142;-61
2022/09/12 08:50:22;;;;;;;1.63;1.53;;;;;;;18.55;100.00;96462.78;5031379;28;105162;-61
2022/09/12 08:52:57;;;;;;;1.80;1.70;;;;;;;18.53;100.00;96459.56;5026891;28;105342;-61
2022/09/12 08:55:29;;;;;;;1.70;1.60;;;;;;;18.65;100.00;96456.38;5010712;28;101904;-61
2022/09/12 08:57:58;;;;;;;1.80;1.53;;;;;;;18.97;100.00;96453.56;5010745;28;105184;-61
2022/09/12 09:00:33;;;;;;;1.80;1.70;;;;;;;18.88;100.00;96450.78;5011179;28;102734;-61
2022/09/12 09:03:21;;;;;;;1.60;1.50;;;;;;;18.55;100.00;96453.88;5014208;28;101916;-61
2022/09/12 09:05:58;;;;;;;1.80;1.70;;;;;;;19.04;100.00;96448.56;5010068;28;105483;-61
2022/09/12 09:08:55;;;;;;;1.50;1.40;;;;;;;18.93;100.00;96447.19;5011768;28;101852;-61
2022/09/12 09:11:40;;;;;;;1.40;1.30;;;;;;;19.32;100.00;96442.03;4998918;28;105128;-61
2022/09/12 09:17:31;;;;;;;2.03;1.63;;;;;;;19.91;100.00;96444.41;5012449;28;101828;-62
2022/09/12 09:20:23;;;;;;;1.57;1.50;;;;;;;20.02;100.00;96437.66;5012291;28;102567;-61
2022/09/12 09:22:57;;;;;;;1.70;1.60;;;;;;;19.88;100.00;96431.53;5011557;28;102711;-61
2022/09/12 09:25:39;;;;;;;2.37;1.70;;;;;;;19.40;100.00;96433.25;5012283;28;101956;-62
2022/09/12 09:28:12;;;;;;;1.70;1.60;;;;;;;19.43;100.00;96432.63;5013469;28;105344;-62
2022/09/12 09:30:43;;;;;;;1.73;1.37;;;;;;;19.90;100.00;96429.31;5010982;28;102070;-61
2022/09/12 09:33:20;;;;;;;2.40;1.60;;;;;;;19.91;100.00;96420.13;5012228;28;102333;-61
2022/09/12 09:36:38;;;;;;;2.60;1.40;;;;;;;20.41;100.00;96418.81;5022196;28;105414;-60
2022/09/12 09:39:13;;;;;;;1.40;1.20;;;;;;;20.77;100.00;96416.75;5012002;28;101728;-62
2022/09/12 09:41:52;;;;;;;1.30;1.20;;;;;;;21.08;100.00;96409.38;5010362;28;105491;-62
2022/09/12 09:44:19;;;;;;;1.20;1.20;;;;;;;21.27;100.00;96416.09;5020182;28;105816;-62
2022/09/12 09:46:47;;;;;;;1.37;1.00;;;;;;;21.51;100.00;96411.00;5011475;28;101896;-62
2022/09/12 09:49:17;;;;;;;1.00;1.00;;;;;;;21.48;100.00;96410.84;5011038;28;102836;-64
2022/09/12 09:51:45;;;;;;;1.00;1.00;;;;;;;21.34;100.00;96411.00;5020515;28;101833;-62
2022/09/12 09:54:20;;;;;;;1.10;1.10;;;;;;;21.32;100.00;96405.13;5030855;28;102456;-62
2022/09/12 09:56:47;;;;;;;0.90;0.90;;;;;;;21.50;100.00;96405.88;5030280;28;102577;-62
2022/09/12 09:59:18;;;;;;;1.70;1.20;;;;;;;21.60;100.00;96406.38;5031063;27;101734;-62
2022/09/12 10:01:47;;;;;;;1.33;1.00;;;;;;;21.85;100.00;96396.69;5031622;27;102295;-62
2022/09/12 10:04:20;;;;;;;1.47;1.00;;;;;;;22.35;100.00;96401.13;5029868;27;103297;-62
2022/09/12 10:06:47;;;;;;;1.50;1.40;;;;;;;21.65;100.00;96394.59;5029673;28;101889;-62
2022/09/12 10:09:22;;;;;;;1.00;1.00;;;;;;;21.82;100.00;96397.31;5029589;28;105345;-62
2022/09/12 10:11:51;;;;;;;1.10;1.10;;;;;;;22.05;100.00;96394.06;5032313;28;105326;-62
2022/09/12 10:14:33;;;;;;;1.23;1.20;;;;;;;22.04;100.00;96397.91;5029142;28;105286;-62
2022/09/12 10:17:02;;;;;;;1.30;1.20;;;;;;;21.89;100.00;96400.31;5028878;28;103586;-62
2022/09/12 10:19:39;;;;;;;1.00;1.00;;;;;;;22.17;100.00;96396.91;5029292;28;101965;-62
2022/09/12 10:22:07;;;;;;;1.03;1.03;;;;;;;22.56;100.00;96403.97;5029314;28;104993;-62
2022/09/12 10:24:41;;;;;;;0.73;0.73;;;;;;;22.55;100.00;96396.97;5028667;28;104732;-62
2022/09/12 10:27:14;;;;;;;1.27;1.00;;;;;;;22.71;100.00;96395.28;5029227;28;102394;-62
2022/09/12 10:29:47;;;;;;;1.17;1.03;;;;;;;22.73;100.00;96398.47;5030919;28;102279;-62
2022/09/12 10:32:22;;;;;;;0.93;0.93;;;;;;;22.93;100.00;96386.84;5029431;28;103159;-62
2022/09/12 10:34:55;;;;;;;1.77;0.83;;;;;;;23.26;100.00;96379.66;5033729;28;101767;-62
2022/09/12 10:37:36;;;;;;;0.90;0.90;;;;;;;23.31;100.00;96384.88;5014621;28;102560;-62
2022/09/12 10:40:08;;;;;;;0.93;0.93;;;;;;;23.27;100.00;96384.75;5020259;28;102047;-62
2022/09/12 10:42:50;;;;;;;0.90;0.90;;;;;;;23.46;100.00;96385.09;5010472;28;102568;-62
2022/09/12 10:45:27;;;;;;;1.43;0.90;;;;;;;23.08;100.00;96391.72;5022759;28;104809;-62
2022/09/12 10:47:57;;;;;;;0.80;0.80;;;;;;;23.18;100.00;96373.19;5022065;28;101931;-62
2022/09/12 10:50:30;;;;;;;0.83;0.83;;;;;;;22.49;100.00;96376.56;5029926;28;102318;-63
2022/09/12 10:53:14;;;;;;;0.90;0.90;;;;;;;22.77;100.00;96383.16;5011402;28;102791;-63
2022/09/12 10:56:01;;;;;;;0.87;0.87;;;;;;;23.15;100.00;96373.00;5021288;28;102015;-63
2022/09/12 10:58:43;;;;;;;0.97;0.80;;;;;;;23.68;100.00;96375.78;5012730;28;102385;-63
2022/09/12 11:01:24;;;;;;;1.10;0.77;;;;;;;24.36;100.00;96370.44;5008526;28;101884;-63
2022/09/12 11:04:09;;;;;;;0.70;0.70;;;;;;;24.12;80.89;96370.41;5009666;28;103547;-63
2022/09/12 11:06:44;;;;;;;1.00;1.00;;;;;;;24.12;94.00;96377.75;5025770;27;103765;-63
2022/09/12 11:09:19;;;;;;;0.70;0.70;;;;;;;24.29;100.00;96369.41;5013122;28;101874;-63
2022/09/12 11:12:01;;;;;;;0.83;0.83;;;;;;;24.25;96.92;96358.41;5017903;28;102282;-63
2022/09/12 11:14:53;;;;;;;0.60;0.60;;;;;;;23.83;92.29;96353.44;5008687;28;105818;-63
2022/09/12 11:17:29;;;;;;;0.70;0.70;;;;;;;23.74;90.95;96352.72;5009848;28;101924;-61
2022/09/12 11:20:21;;;;;;;0.77;0.77;;;;;;;24.24;98.40;96362.28;5009869;28;102820;-65
2022/09/12 11:23:09;;;;;;;0.80;0.80;;;;;;;24.51;90.85;96360.81;5015143;28;104771;-62
2022/09/12 11:25:44;;;;;;;0.70;0.70;;;;;;;24.74;82.07;96353.84;5017855;28;102514;-62
2022/09/12 11:28:30;;;;;;;1.13;0.63;;;;;;;24.90;81.20;96368.34;5016327;28;103149;-64
2022/09/12 11:31:16;;;;;;;0.60;0.60;;;;;;;24.76;80.40;96351.56;5019221;28;101976;-66
2022/09/12 11:33:44;;;;;;;0.63;0.63;;;;;;;25.11;80.73;96358.13;5029863;28;102370;-64
2022/09/12 11:36:23;;;;;;;0.60;0.60;;;;;;;24.73;76.17;96355.00;5017301;28;105438;-64
2022/09/12 11:39:04;;;;;;;0.70;0.70;;;;;;;23.56;83.46;96351.31;5008335;28;101791;-64
2022/09/12 11:41:35;;;;;;;1.93;1.00;;;;;;;24.26;88.65;96354.56;5009568;28;103189;-64
2022/09/12 11:44:12;;;;;;;1.20;1.00;;;;;;;24.98;76.19;96356.53;5014958;28;101944;-64
2022/09/12 11:46:42;;;;;;;0.70;0.70;;;;;;;25.19;66.57;96357.19;5030640;27;102056;-64
2022/09/12 11:49:20;;;;;;;0.70;0.70;;;;;;;25.20;66.79;96358.75;5008260;28;102530;-64